createdAt,value
2023-02-11T00:00:06.758Z,18.5
2023-02-11T00:01:50.459Z,18.5
2023-02-11T00:03:34.181Z,18.5
2023-02-11T00:05:17.864Z,18.5
2023-02-11T00:07:01.570Z,18.5
2023-02-11T00:08:45.266Z,18.5
2023-02-11T00:10:28.970Z,18.5
2023-02-11T00:12:12.662Z,18.5
2023-02-11T00:13:56.385Z,18.5
2023-02-11T00:15:40.080Z,18.5
2023-02-11T00:17:23.777Z,18.5
2023-02-11T00:19:07.477Z,18.5
2023-02-11T00:20:51.172Z,18.4
2023-02-11T00:22:34.896Z,18.4
2023-02-11T00:24:18.587Z,18.4
2023-02-11T00:26:02.278Z,18.4
2023-02-11T00:27:45.994Z,18.4
2023-02-11T00:29:29.691Z,18.4
2023-02-11T00:31:13.386Z,18.4
2023-02-11T00:32:57.087Z,18.4
2023-02-11T00:34:40.797Z,18.4
2023-02-11T00:36:24.530Z,18.4
2023-02-11T00:38:08.196Z,18.4
2023-02-11T00:39:51.895Z,18.4
2023-02-11T00:41:35.600Z,18.4
2023-02-11T00:43:19.289Z,18.4
2023-02-11T00:45:02.999Z,18.4
2023-02-11T00:46:46.707Z,18.4
2023-02-11T00:48:30.392Z,18.3
2023-02-11T00:50:14.106Z,18.4
2023-02-11T00:51:57.848Z,18.3
2023-02-11T00:53:41.527Z,18.3
2023-02-11T00:55:25.192Z,18.3
2023-02-11T00:57:12.064Z,18.3
2023-02-11T00:58:52.971Z,18.3
2023-02-11T01:00:36.327Z,18.3
2023-02-11T01:02:20.013Z,18.3
2023-02-11T01:04:03.820Z,18.3
2023-02-11T01:05:47.429Z,18.3
2023-02-11T01:07:31.108Z,18.3
2023-02-11T01:09:14.835Z,18.3
2023-02-11T01:10:58.528Z,18.3
2023-02-11T01:14:25.915Z,18.3
2023-02-11T01:16:09.632Z,18.3
2023-02-11T01:17:53.331Z,18.3
2023-02-11T01:19:37.028Z,18.3
2023-02-11T01:21:20.736Z,18.3
2023-02-11T01:23:04.466Z,18.3
2023-02-11T01:24:48.146Z,18.3
2023-02-11T01:26:31.835Z,18.3
2023-02-11T01:28:15.543Z,18.3
2023-02-11T01:29:59.252Z,18.3
2023-02-11T01:31:42.940Z,18.3
2023-02-11T01:33:26.741Z,18.3
2023-02-11T01:35:10.350Z,18.3
2023-02-11T01:36:54.039Z,18.3
2023-02-11T01:38:37.755Z,18.3
2023-02-11T01:40:21.451Z,18.3
2023-02-11T01:42:05.165Z,18.3
2023-02-11T01:43:48.855Z,18.3
2023-02-11T01:45:32.556Z,18.3
2023-02-11T01:50:43.666Z,18.3
2023-02-11T01:52:27.456Z,18.3
2023-02-11T01:54:11.119Z,18.3
2023-02-11T01:55:54.786Z,18.3
2023-02-11T01:57:38.462Z,18.3
2023-02-11T01:59:22.160Z,18.3
2023-02-11T02:01:05.865Z,18.3
2023-02-11T02:02:49.570Z,18.3
2023-02-11T02:04:33.269Z,18.3
2023-02-11T02:06:16.985Z,18.3
2023-02-11T02:08:00.684Z,18.3
2023-02-11T02:09:44.380Z,18.3
2023-02-11T02:11:28.064Z,18.3
2023-02-11T02:13:11.763Z,18.3
2023-02-11T02:14:55.478Z,18.3
2023-02-11T02:16:39.196Z,18.3
2023-02-11T02:18:22.871Z,18.3
2023-02-11T02:20:06.567Z,18.3
2023-02-11T02:21:50.272Z,18.3
2023-02-11T02:23:33.999Z,18.3
2023-02-11T02:25:17.681Z,18.3
2023-02-11T02:27:01.401Z,18.3
2023-02-11T02:30:28.780Z,18.3
2023-02-11T02:32:12.481Z,18.3
2023-02-11T02:33:56.184Z,18.3
2023-02-11T02:35:39.896Z,18.3
2023-02-11T02:37:23.573Z,18.3
2023-02-11T02:39:07.282Z,18.3
2023-02-11T02:40:50.969Z,18.3
2023-02-11T02:42:34.680Z,18.3
2023-02-11T02:44:18.394Z,18.3
2023-02-11T02:46:02.096Z,18.3
2023-02-11T02:47:45.786Z,18.3
2023-02-11T02:49:29.500Z,18.3
2023-02-11T02:51:13.194Z,18.3
2023-02-11T02:52:56.905Z,18.3
2023-02-11T02:54:40.604Z,18.3
2023-02-11T02:56:24.294Z,18.3
2023-02-11T02:58:07.995Z,18.3
2023-02-11T02:59:51.721Z,18.3
2023-02-11T03:01:35.406Z,18.3
2023-02-11T03:03:19.094Z,18.3
2023-02-11T03:05:02.831Z,18.3
2023-02-11T03:06:46.521Z,18.3
2023-02-11T03:08:30.213Z,18.3
2023-02-11T03:10:13.946Z,18.3
2023-02-11T03:11:57.615Z,18.3
2023-02-11T03:13:41.301Z,18.3
2023-02-11T03:15:25.017Z,18.3
2023-02-11T03:17:08.714Z,18.3
2023-02-11T03:18:52.411Z,18.3
2023-02-11T03:20:36.115Z,18.3
2023-02-11T03:22:19.822Z,18.3
2023-02-11T03:24:03.529Z,18.3
2023-02-11T03:25:47.225Z,18.3
2023-02-11T03:27:30.924Z,18.3
2023-02-11T03:29:14.628Z,18.3
2023-02-11T03:30:58.421Z,18.3
2023-02-11T03:32:42.029Z,18.3
2023-02-11T03:34:25.719Z,18.3
2023-02-11T03:36:09.422Z,18.4
2023-02-11T03:37:53.138Z,18.4
2023-02-11T03:39:36.835Z,18.3
2023-02-11T03:41:20.530Z,18.4
2023-02-11T03:43:04.278Z,18.4
2023-02-11T03:44:47.934Z,18.4
2023-02-11T03:46:31.651Z,18.4
2023-02-11T03:48:15.331Z,18.4
2023-02-11T03:49:59.046Z,18.4
2023-02-11T03:51:42.746Z,18.4
2023-02-11T03:53:26.452Z,18.4
2023-02-11T03:55:10.167Z,18.4
2023-02-11T03:56:53.858Z,18.4
2023-02-11T03:58:37.565Z,18.4
2023-02-11T04:00:21.255Z,18.4
2023-02-11T04:02:04.961Z,18.4
2023-02-11T04:03:48.657Z,18.4
2023-02-11T04:05:32.349Z,18.4
2023-02-11T04:07:16.069Z,18.4
2023-02-11T04:08:59.782Z,18.4
2023-02-11T04:10:43.445Z,18.4
2023-02-11T04:12:27.155Z,18.4
2023-02-11T04:14:10.855Z,18.4
2023-02-11T04:15:54.576Z,18.5
2023-02-11T04:17:38.292Z,18.5
2023-02-11T04:19:21.985Z,18.4
2023-02-11T04:21:05.762Z,18.5
2023-02-11T04:22:49.392Z,18.4
2023-02-11T04:24:33.079Z,18.5
2023-02-11T04:26:16.759Z,18.5
2023-02-11T04:28:00.483Z,18.5
2023-02-11T04:29:44.196Z,18.5
2023-02-11T04:31:27.876Z,18.5
2023-02-11T04:33:11.556Z,18.5
2023-02-11T04:34:55.272Z,18.4
2023-02-11T04:36:38.974Z,18.5
2023-02-11T04:38:22.686Z,18.5
2023-02-11T04:40:06.383Z,18.4
2023-02-11T04:41:50.082Z,18.5
2023-02-11T04:43:33.785Z,18.5
2023-02-11T04:45:17.492Z,18.5
2023-02-11T04:47:01.195Z,18.4
2023-02-11T04:48:44.877Z,18.4
2023-02-11T04:50:28.587Z,18.4
2023-02-11T04:52:12.397Z,18.4
2023-02-11T04:53:55.994Z,18.4
2023-02-11T04:55:39.688Z,18.4
2023-02-11T04:57:23.399Z,18.5
2023-02-11T04:59:07.091Z,18.5
2023-02-11T05:00:50.804Z,18.5
2023-02-11T05:02:34.519Z,18.5
2023-02-11T05:04:18.197Z,18.5
2023-02-11T05:06:01.914Z,18.5
2023-02-11T05:07:45.609Z,18.5
2023-02-11T05:09:29.326Z,18.5
2023-02-11T05:11:12.999Z,18.5
2023-02-11T05:12:56.711Z,18.5
2023-02-11T05:14:40.425Z,18.5
2023-02-11T05:16:24.121Z,18.5
2023-02-11T05:18:07.809Z,18.5
2023-02-11T05:19:51.512Z,18.5
2023-02-11T05:21:35.224Z,18.5
2023-02-11T05:23:18.930Z,18.5
2023-02-11T05:25:02.627Z,18.5
2023-02-11T05:26:46.363Z,18.5
2023-02-11T05:28:30.022Z,18.5
2023-02-11T05:30:13.724Z,18.5
2023-02-11T05:31:57.418Z,18.5
2023-02-11T05:33:41.126Z,18.5
2023-02-11T05:35:24.963Z,18.5
2023-02-11T05:37:08.516Z,18.5
2023-02-11T05:38:52.242Z,18.5
2023-02-11T05:40:35.946Z,18.5
2023-02-11T05:42:19.625Z,18.5
2023-02-11T05:44:03.327Z,18.6
2023-02-11T05:45:47.020Z,18.6
2023-02-11T05:47:30.761Z,18.6
2023-02-11T05:49:14.420Z,18.6
2023-02-11T05:50:58.135Z,18.6
2023-02-11T05:52:41.821Z,18.6
2023-02-11T05:54:25.550Z,18.6
2023-02-11T05:56:09.253Z,18.6
2023-02-11T05:57:52.940Z,18.6
2023-02-11T05:59:36.631Z,18.6
2023-02-11T06:01:20.341Z,18.6
2023-02-11T06:03:04.052Z,18.6
2023-02-11T06:04:47.749Z,18.6
2023-02-11T06:06:31.443Z,18.6
2023-02-11T06:08:15.153Z,18.6
2023-02-11T06:09:58.840Z,18.6
2023-02-11T06:11:42.550Z,18.6
2023-02-11T06:13:26.291Z,18.6
2023-02-11T06:15:09.969Z,18.6
2023-02-11T06:16:53.653Z,18.7
2023-02-11T06:18:37.446Z,18.7
2023-02-11T06:20:21.182Z,18.7
2023-02-11T06:22:04.766Z,18.7
2023-02-11T06:23:48.462Z,18.7
2023-02-11T06:25:32.232Z,18.7
2023-02-11T06:27:15.863Z,18.7
2023-02-11T06:28:59.608Z,18.7
2023-02-11T06:30:43.265Z,18.7
2023-02-11T06:32:26.975Z,18.7
2023-02-11T06:35:54.422Z,18.7
2023-02-11T06:37:38.070Z,18.7
2023-02-11T06:39:21.787Z,18.7
2023-02-11T06:41:05.507Z,18.7
2023-02-11T06:42:49.183Z,18.7
2023-02-11T06:44:32.875Z,18.7
2023-02-11T06:46:16.592Z,18.7
2023-02-11T06:48:00.311Z,18.7
2023-02-11T06:49:44.028Z,18.7
2023-02-11T06:51:27.699Z,18.7
2023-02-11T06:53:11.413Z,18.7
2023-02-11T06:54:55.094Z,18.7
2023-02-11T06:56:38.804Z,18.7
2023-02-11T06:58:22.503Z,18.7
2023-02-11T07:00:06.225Z,18.7
2023-02-11T07:01:49.906Z,18.7
2023-02-11T07:03:33.626Z,18.7
2023-02-11T07:05:17.288Z,18.7
2023-02-11T07:07:01.033Z,18.7
2023-02-11T07:08:44.780Z,18.7
2023-02-11T07:10:28.392Z,18.7
2023-02-11T07:12:12.117Z,18.7
2023-02-11T07:13:55.823Z,18.7
2023-02-11T07:15:39.507Z,18.7
2023-02-11T07:17:23.227Z,18.7
2023-02-11T07:19:06.936Z,18.7
2023-02-11T07:20:50.615Z,18.7
2023-02-11T07:22:34.367Z,18.7
2023-02-11T07:24:18.025Z,18.7
2023-02-11T07:26:01.753Z,18.7
2023-02-11T07:27:45.417Z,18.7
2023-02-11T07:29:29.124Z,18.7
2023-02-11T07:31:12.826Z,18.7
2023-02-11T07:32:56.538Z,18.7
2023-02-11T07:34:40.234Z,18.7
2023-02-11T07:36:23.951Z,18.7
2023-02-11T07:38:07.634Z,18.7
2023-02-11T07:39:51.370Z,18.7
2023-02-11T07:43:18.846Z,18.8
2023-02-11T07:45:02.438Z,18.8
2023-02-11T07:46:46.150Z,18.8
2023-02-11T07:48:29.887Z,18.8
2023-02-11T07:50:13.546Z,18.8
2023-02-11T07:51:57.241Z,18.8
2023-02-11T07:53:40.974Z,19
2023-02-11T07:55:24.664Z,19.1
2023-02-11T07:57:08.344Z,19.2
2023-02-11T07:58:52.067Z,19.3
2023-02-11T08:00:35.752Z,19.3
2023-02-11T08:02:19.472Z,19.4
2023-02-11T08:04:03.297Z,19.4
2023-02-11T08:05:46.864Z,19.4
2023-02-11T08:07:30.600Z,19.5
2023-02-11T08:09:14.309Z,19.5
2023-02-11T08:10:57.982Z,19.5
2023-02-11T08:12:41.684Z,19.6
2023-02-11T08:14:25.404Z,19.6
2023-02-11T08:17:52.783Z,19.5
2023-02-11T08:19:36.485Z,19.5
2023-02-11T08:21:20.197Z,19.5
2023-02-11T08:23:03.887Z,19.5
2023-02-11T08:24:47.648Z,19.6
2023-02-11T08:26:31.270Z,19.6
2023-02-11T08:28:14.988Z,19.6
2023-02-11T08:29:58.702Z,19.6
2023-02-11T08:31:42.400Z,19.6
2023-02-11T08:33:26.104Z,19.7
2023-02-11T08:35:09.805Z,19.7
2023-02-11T08:36:53.499Z,19.7
2023-02-11T08:38:37.210Z,19.7
2023-02-11T08:40:20.910Z,19.7
2023-02-11T08:42:04.597Z,19.7
2023-02-11T08:43:48.301Z,19.7
2023-02-11T08:45:32.053Z,19.7
2023-02-11T08:47:15.812Z,19.6
2023-02-11T08:48:59.399Z,19.6
2023-02-11T08:50:43.132Z,19.6
2023-02-11T08:52:26.869Z,19.6
2023-02-11T08:54:10.519Z,19.6
2023-02-11T08:55:54.220Z,19.6
2023-02-11T08:57:37.927Z,19.6
2023-02-11T08:59:21.621Z,19.6
2023-02-11T09:01:05.323Z,19.7
2023-02-11T09:02:49.029Z,19.7
2023-02-11T09:04:32.746Z,19.8
2023-02-11T09:06:16.450Z,19.8
2023-02-11T09:08:00.139Z,19.9
2023-02-11T09:09:43.909Z,19.9
2023-02-11T09:11:27.594Z,20
2023-02-11T09:13:11.246Z,20
2023-02-11T09:14:54.950Z,20
2023-02-11T09:16:38.659Z,20.1
2023-02-11T09:18:22.363Z,20.1
2023-02-11T09:20:06.034Z,20.1
2023-02-11T09:21:49.747Z,20.2
2023-02-11T09:23:33.445Z,20.2
2023-02-11T09:25:17.144Z,20.2
2023-02-11T09:27:00.898Z,20.3
2023-02-11T09:28:44.557Z,20.3
2023-02-11T09:30:28.249Z,20.3
2023-02-11T09:32:11.945Z,20.4
2023-02-11T09:33:55.681Z,20.4
2023-02-11T09:35:39.364Z,20.5
2023-02-11T09:37:23.070Z,20.5
2023-02-11T09:39:06.764Z,20.6
2023-02-11T09:40:50.445Z,20.7
2023-02-11T09:42:34.151Z,20.8
2023-02-11T09:44:17.865Z,20.8
2023-02-11T09:46:01.579Z,20.9
2023-02-11T09:47:45.280Z,21
2023-02-11T09:49:28.984Z,21
2023-02-11T09:51:12.674Z,21
2023-02-11T09:52:56.381Z,21
2023-02-11T09:54:40.086Z,20.9
2023-02-11T09:56:23.786Z,20.9
2023-02-11T09:58:07.483Z,20.9
2023-02-11T09:59:51.196Z,20.9
2023-02-11T10:01:34.889Z,21
2023-02-11T10:03:18.596Z,21
2023-02-11T10:05:02.300Z,20.9
2023-02-11T10:06:46.020Z,21
2023-02-11T10:08:29.706Z,21
2023-02-11T10:10:13.433Z,21
2023-02-11T10:11:57.159Z,21
2023-02-11T10:13:40.839Z,21
2023-02-11T10:15:24.544Z,21.1
2023-02-11T10:17:08.211Z,21
2023-02-11T10:18:51.917Z,21.1
2023-02-11T10:20:35.617Z,21.1
2023-02-11T10:22:19.302Z,21.2
2023-02-11T10:24:03.013Z,21.2
2023-02-11T10:25:46.725Z,21.2
2023-02-11T10:27:30.474Z,21.3
2023-02-11T10:29:14.112Z,21.3
2023-02-11T10:30:57.815Z,21.3
2023-02-11T10:32:41.579Z,21.3
2023-02-11T10:34:25.256Z,21.3
2023-02-11T10:36:08.924Z,21.3
2023-02-11T10:37:52.654Z,21.4
2023-02-11T10:39:36.341Z,21.4
2023-02-11T10:41:20.056Z,21.4
2023-02-11T10:43:03.741Z,21.4
2023-02-11T10:44:47.444Z,21.4
2023-02-11T10:46:31.182Z,21.4
2023-02-11T10:48:14.855Z,21.4
2023-02-11T10:49:58.559Z,21.4
2023-02-11T10:51:44.148Z,21.4
2023-02-11T10:53:25.942Z,21.4
2023-02-11T10:55:09.659Z,21.4
2023-02-11T10:56:53.342Z,21.4
2023-02-11T10:58:37.055Z,21.4
2023-02-11T11:00:20.753Z,21.5
2023-02-11T11:02:04.468Z,21.5
2023-02-11T11:03:48.216Z,21.5
2023-02-11T11:05:31.969Z,21.5
2023-02-11T11:07:15.740Z,21.5
2023-02-11T11:08:59.263Z,21.5
2023-02-11T11:10:43.123Z,21.5
2023-02-11T11:12:26.925Z,21.5
2023-02-11T11:14:10.554Z,21.5
2023-02-11T11:15:54.216Z,21.5
2023-02-11T11:17:38.232Z,21.5
2023-02-11T11:19:21.722Z,21.5
2023-02-11T11:21:05.200Z,21.5
2023-02-11T11:22:49.026Z,21.5
2023-02-11T11:24:32.583Z,21.5
2023-02-11T11:26:16.469Z,21.5
2023-02-11T11:27:59.977Z,21.5
2023-02-11T11:29:43.719Z,21.5
2023-02-11T11:31:27.463Z,21.5
2023-02-11T11:33:11.096Z,21.5
2023-02-11T11:34:54.831Z,21.5
2023-02-11T11:36:38.488Z,21.5
2023-02-11T11:38:22.189Z,21.5
2023-02-11T11:40:05.886Z,21.5
2023-02-11T11:41:49.588Z,21.5
2023-02-11T11:43:33.300Z,21.5
2023-02-11T11:45:16.991Z,21.4
2023-02-11T11:47:00.698Z,21.5
2023-02-11T11:48:44.408Z,21.5
2023-02-11T11:50:28.154Z,21.6
2023-02-11T11:52:11.808Z,21.6
2023-02-11T11:53:55.519Z,21.6
2023-02-11T11:55:39.228Z,21.6
2023-02-11T11:57:23.101Z,21.6
2023-02-11T11:59:06.619Z,21.6
2023-02-11T12:00:50.323Z,21.7
2023-02-11T12:02:34.031Z,21.7
2023-02-11T12:04:17.711Z,21.7
2023-02-11T12:06:01.420Z,21.8
2023-02-11T12:07:45.118Z,21.9
2023-02-11T12:09:28.830Z,22
2023-02-11T12:11:12.527Z,22.1
2023-02-11T12:12:56.217Z,22
2023-02-11T12:14:39.930Z,22.1
2023-02-11T12:16:23.637Z,22.1
2023-02-11T12:18:07.340Z,22.1
2023-02-11T12:19:51.012Z,22.1
2023-02-11T12:21:34.782Z,22.1
2023-02-11T12:23:18.432Z,22.1
2023-02-11T12:25:02.158Z,22.1
2023-02-11T12:26:45.846Z,22.1
2023-02-11T12:28:29.539Z,22.1
2023-02-11T12:30:13.272Z,22.1
2023-02-11T12:31:56.951Z,22.1
2023-02-11T12:33:40.656Z,22
2023-02-11T12:35:24.361Z,22
2023-02-11T12:37:08.068Z,22
2023-02-11T12:38:51.764Z,22
2023-02-11T12:40:35.477Z,22
2023-02-11T12:42:19.175Z,22
2023-02-11T12:44:02.914Z,22
2023-02-11T12:45:46.598Z,22
2023-02-11T12:47:30.296Z,22
2023-02-11T12:49:14.044Z,22
2023-02-11T12:50:57.706Z,22
2023-02-11T12:52:41.396Z,22
2023-02-11T12:54:25.108Z,21.9
2023-02-11T12:56:08.819Z,21.9
2023-02-11T12:57:52.503Z,21.9
2023-02-11T12:59:36.196Z,21.9
2023-02-11T13:01:19.916Z,21.9
2023-02-11T13:03:03.627Z,21.9
2023-02-11T13:04:47.333Z,21.9
2023-02-11T13:06:31.021Z,21.9
2023-02-11T13:08:14.717Z,21.8
2023-02-11T13:09:58.439Z,21.8
2023-02-11T13:11:42.151Z,21.8
2023-02-11T13:13:25.848Z,21.7
2023-02-11T13:15:09.567Z,21.7
2023-02-11T13:16:53.240Z,21.7
2023-02-11T13:18:36.968Z,21.7
2023-02-11T13:20:20.657Z,21.7
2023-02-11T13:22:04.338Z,21.7
2023-02-11T13:23:48.041Z,21.6
2023-02-11T13:25:31.745Z,21.6
2023-02-11T13:27:15.453Z,21.6
2023-02-11T13:28:59.154Z,21.5
2023-02-11T13:30:42.878Z,21.5
2023-02-11T13:32:26.549Z,21.5
2023-02-11T13:34:10.280Z,21.5
2023-02-11T13:35:53.991Z,21.5
2023-02-11T13:37:37.662Z,21.5
2023-02-11T13:39:21.342Z,21.4
2023-02-11T13:41:05.063Z,21.4
2023-02-11T13:42:48.856Z,21.4
2023-02-11T13:44:32.507Z,21.4
2023-02-11T13:46:16.170Z,21.4
2023-02-11T13:47:59.972Z,21.4
2023-02-11T13:49:43.670Z,21.5
2023-02-11T13:51:27.261Z,21.5
2023-02-11T13:53:10.975Z,21.6
2023-02-11T13:54:54.733Z,21.7
2023-02-11T13:56:38.397Z,21.7
2023-02-11T13:58:22.061Z,21.7
2023-02-11T14:00:05.855Z,21.8
2023-02-11T14:01:49.488Z,21.8
2023-02-11T14:03:33.222Z,21.8
2023-02-11T14:05:16.917Z,21.8
2023-02-11T14:07:00.587Z,21.8
2023-02-11T14:08:44.315Z,21.9
2023-02-11T14:10:27.974Z,21.9
2023-02-11T14:12:11.686Z,21.9
2023-02-11T14:13:55.442Z,21.9
2023-02-11T14:15:39.095Z,21.9
2023-02-11T14:17:22.815Z,21.9
2023-02-11T14:19:06.581Z,21.9
2023-02-11T14:20:50.204Z,21.9
2023-02-11T14:22:33.960Z,22
2023-02-11T14:24:17.616Z,22
2023-02-11T14:26:01.316Z,22
2023-02-11T14:27:45.024Z,22
2023-02-11T14:29:28.725Z,22
2023-02-11T14:31:12.425Z,22
2023-02-11T14:32:56.115Z,22
2023-02-11T14:34:39.816Z,22
2023-02-11T14:36:23.572Z,22.1
2023-02-11T14:38:07.239Z,22
2023-02-11T14:39:50.937Z,22
2023-02-11T14:41:34.617Z,22
2023-02-11T14:43:18.315Z,22
2023-02-11T14:45:02.032Z,21.9
2023-02-11T14:46:45.737Z,21.9
2023-02-11T14:48:29.411Z,21.9
2023-02-11T14:50:13.115Z,21.8
2023-02-11T14:51:56.901Z,21.7
2023-02-11T14:53:40.528Z,21.7
2023-02-11T14:55:24.239Z,21.6
2023-02-11T14:57:07.930Z,21.5
2023-02-11T14:58:51.633Z,21.5
2023-02-11T15:00:35.360Z,21.5
2023-02-11T15:02:19.050Z,21.5
2023-02-11T15:04:02.753Z,21.4
2023-02-11T15:05:46.530Z,21.5
2023-02-11T15:07:30.150Z,21.5
2023-02-11T15:09:13.851Z,21.5
2023-02-11T15:10:57.552Z,21.5
2023-02-11T15:12:41.254Z,21.4
2023-02-11T15:14:24.963Z,21.4
2023-02-11T15:16:08.650Z,21.4
2023-02-11T15:17:52.350Z,21.4
2023-02-11T15:19:36.052Z,21.3
2023-02-11T15:21:19.767Z,21.3
2023-02-11T15:23:03.449Z,21.3
2023-02-11T15:24:47.150Z,21.3
2023-02-11T15:26:31.173Z,21.2
2023-02-11T15:28:14.568Z,21.2
2023-02-11T15:29:58.256Z,21.2
2023-02-11T15:31:41.965Z,21.2
2023-02-11T15:33:25.657Z,21.2
2023-02-11T15:35:09.376Z,21.1
2023-02-11T15:36:53.067Z,21.1
2023-02-11T15:38:36.777Z,21.1
2023-02-11T15:40:20.479Z,21
2023-02-11T15:42:04.186Z,21
2023-02-11T15:43:47.882Z,21
2023-02-11T15:45:31.597Z,20.9
2023-02-11T15:47:15.283Z,20.9
2023-02-11T15:48:58.981Z,20.9
2023-02-11T15:50:42.703Z,20.8
2023-02-11T15:52:26.410Z,20.8
2023-02-11T15:54:10.183Z,20.8
2023-02-11T15:55:53.788Z,20.7
2023-02-11T15:57:37.501Z,20.7
2023-02-11T15:59:21.213Z,20.7
2023-02-11T16:01:04.895Z,20.6
2023-02-11T16:02:48.603Z,20.6
2023-02-11T16:04:32.301Z,20.5
2023-02-11T16:06:16.013Z,20.5
2023-02-11T16:07:59.760Z,20.5
2023-02-11T16:09:43.412Z,20.5
2023-02-11T16:11:27.101Z,20.5
2023-02-11T16:13:10.820Z,20.4
2023-02-11T16:14:54.519Z,20.4
2023-02-11T16:16:38.214Z,20.4
2023-02-11T16:18:21.921Z,20.4
2023-02-11T16:20:05.598Z,20.4
2023-02-11T16:21:49.305Z,20.4
2023-02-11T16:23:33.000Z,20.4
2023-02-11T16:25:16.824Z,20.3
2023-02-11T16:27:00.420Z,20.3
2023-02-11T16:28:44.123Z,20.3
2023-02-11T16:30:27.827Z,20.3
2023-02-11T16:32:11.541Z,20.3
2023-02-11T16:33:55.218Z,20.3
2023-02-11T16:35:38.935Z,20.3
2023-02-11T16:37:22.643Z,20.3
2023-02-11T16:39:06.346Z,20.2
2023-02-11T16:40:50.059Z,20.3
2023-02-11T16:42:33.806Z,20.3
2023-02-11T16:44:17.468Z,20.2
2023-02-11T16:46:01.156Z,20.2
2023-02-11T16:47:44.855Z,20.2
2023-02-11T16:49:28.541Z,20.2
2023-02-11T16:51:12.247Z,20.2
2023-02-11T16:52:55.953Z,20.2
2023-02-11T16:54:39.661Z,20.2
2023-02-11T16:56:23.353Z,20.2
2023-02-11T16:58:07.056Z,20.2
2023-02-11T16:59:50.749Z,20.2
2023-02-11T17:01:34.448Z,20.2
2023-02-11T17:03:18.166Z,20.2
2023-02-11T17:05:01.865Z,20.2
2023-02-11T17:06:45.549Z,20.2
2023-02-11T17:08:29.332Z,20.2
2023-02-11T17:10:12.963Z,20.2
2023-02-11T17:11:56.661Z,20.2
2023-02-11T17:13:40.398Z,20.2
2023-02-11T17:15:24.076Z,20.2
2023-02-11T17:17:07.767Z,20.2
2023-02-11T17:18:51.464Z,20.2
2023-02-11T17:20:35.242Z,20.2
2023-02-11T17:22:18.880Z,20.2
2023-02-11T17:24:02.570Z,20.2
2023-02-11T17:25:46.273Z,20.2
2023-02-11T17:27:29.966Z,20.2
2023-02-11T17:29:13.677Z,20.2
2023-02-11T17:30:57.374Z,20.2
2023-02-11T17:32:41.087Z,20.2
2023-02-11T17:34:24.783Z,20.2
2023-02-11T17:36:08.866Z,20.2
2023-02-11T17:37:52.181Z,20.2
2023-02-11T17:39:35.872Z,20.3
2023-02-11T17:41:19.588Z,20.3
2023-02-11T17:43:03.289Z,20.3
2023-02-11T17:44:47.033Z,20.3
2023-02-11T17:46:30.752Z,20.3
2023-02-11T17:48:14.424Z,20.2
2023-02-11T17:49:58.099Z,20.3
2023-02-11T17:51:41.820Z,20.3
2023-02-11T17:53:25.515Z,20.3
2023-02-11T17:55:09.200Z,20.3
2023-02-11T17:56:52.887Z,20.3
2023-02-11T17:58:36.613Z,20.3
2023-02-11T18:00:20.323Z,20.3
2023-02-11T18:02:04.005Z,20.3
2023-02-11T18:03:47.708Z,20.3
2023-02-11T18:05:31.454Z,20.3
2023-02-11T18:07:15.121Z,20.3
2023-02-11T18:08:58.891Z,20.3
2023-02-11T18:10:42.519Z,20.3
2023-02-11T18:12:26.231Z,20.3
2023-02-11T18:14:09.925Z,20.3
2023-02-11T18:15:53.618Z,20.3
2023-02-11T18:17:37.341Z,20.3
2023-02-11T18:19:21.067Z,20.3
2023-02-11T18:21:04.734Z,20.3
2023-02-11T18:22:48.462Z,20.3
2023-02-11T18:24:32.229Z,20.3
2023-02-11T18:26:15.861Z,20.3
2023-02-11T18:27:59.539Z,20.3
2023-02-11T18:29:43.245Z,20.3
2023-02-11T18:31:26.945Z,20.3
2023-02-11T18:33:10.653Z,20.3
2023-02-11T18:34:54.361Z,20.3
2023-02-11T18:36:38.057Z,20.3
2023-02-11T18:38:21.767Z,20.3
2023-02-11T18:40:05.450Z,20.3
2023-02-11T18:41:49.153Z,20.3
2023-02-11T18:43:32.860Z,20.3
2023-02-11T18:45:16.626Z,20.3
2023-02-11T18:47:00.255Z,20.3
2023-02-11T18:48:44.000Z,20.3
2023-02-11T18:50:27.665Z,20.3
2023-02-11T18:52:11.378Z,20.3
2023-02-11T18:53:55.087Z,20.3
2023-02-11T18:55:38.763Z,20.3
2023-02-11T18:57:22.475Z,20.3
2023-02-11T18:59:06.189Z,20.3
2023-02-11T19:00:49.889Z,20.3
2023-02-11T19:02:33.583Z,20.3
2023-02-11T19:04:17.286Z,20.3
2023-02-11T19:06:00.983Z,20.3
2023-02-11T19:07:56.273Z,20.3
2023-02-11T19:09:28.379Z,20.3
2023-02-11T19:11:12.095Z,20.3
2023-02-11T19:12:55.788Z,20.3
2023-02-11T19:14:39.503Z,20.3
2023-02-11T19:16:23.179Z,20.3
2023-02-11T19:18:06.902Z,20.3
2023-02-11T19:19:50.604Z,20.3
2023-02-11T19:21:34.321Z,20.3
2023-02-11T19:23:18.064Z,20.3
2023-02-11T19:25:01.696Z,20.3
2023-02-11T19:26:45.399Z,20.3
2023-02-11T19:28:29.109Z,20.3
2023-02-11T19:30:12.803Z,20.3
2023-02-11T19:31:56.512Z,20.3
2023-02-11T19:33:40.197Z,20.3
2023-02-11T19:35:23.913Z,20.3
2023-02-11T19:37:07.629Z,20.3
2023-02-11T19:38:51.354Z,20.3
2023-02-11T19:40:35.032Z,20.3
2023-02-11T19:42:18.787Z,20.3
2023-02-11T19:44:02.446Z,20.3
2023-02-11T19:45:46.120Z,20.3
2023-02-11T19:47:29.887Z,20.3
2023-02-11T19:49:13.525Z,20.3
2023-02-11T19:50:57.265Z,20.3
2023-02-11T19:52:41.020Z,20.3
2023-02-11T19:54:24.610Z,20.3
2023-02-11T19:56:08.337Z,20.2
2023-02-11T19:57:52.041Z,20.2
2023-02-11T19:59:35.714Z,20.3
2023-02-11T20:01:19.438Z,20.2
2023-02-11T20:03:03.148Z,20.3
2023-02-11T20:04:46.826Z,20.3
2023-02-11T20:06:30.546Z,20.2
2023-02-11T20:08:14.243Z,20.2
2023-02-11T20:09:57.949Z,20.2
2023-02-11T20:11:41.655Z,20.2
2023-02-11T20:13:25.358Z,20.2
2023-02-11T20:15:09.048Z,20.2
2023-02-11T20:16:52.758Z,20.2
2023-02-11T20:18:36.438Z,20.2
2023-02-11T20:20:20.225Z,20.2
2023-02-11T20:22:03.850Z,20.2
2023-02-11T20:23:47.555Z,20.2
2023-02-11T20:25:31.263Z,20.2
2023-02-11T20:27:14.960Z,20.2
2023-02-11T20:28:58.690Z,20.2
2023-02-11T20:30:42.353Z,20.2
2023-02-11T20:32:26.058Z,20.2
2023-02-11T20:34:09.774Z,20.2
2023-02-11T20:35:53.460Z,20.2
2023-02-11T20:37:37.210Z,20.2
2023-02-11T20:39:20.980Z,20.2
2023-02-11T20:41:04.561Z,20.2
2023-02-11T20:42:48.291Z,20.2
2023-02-11T20:44:32.021Z,20.2
2023-02-11T20:46:15.683Z,20.2
2023-02-11T20:47:59.473Z,20.2
2023-02-11T20:49:43.084Z,20.2
2023-02-11T20:51:26.787Z,20.2
2023-02-11T20:53:10.487Z,20.2
2023-02-11T20:54:54.206Z,20.2
2023-02-11T20:56:37.933Z,20.2
2023-02-11T20:58:21.588Z,20.2
2023-02-11T21:00:05.304Z,20.2
2023-02-11T21:01:48.990Z,20.2
2023-02-11T21:03:32.700Z,20.2
2023-02-11T21:05:16.465Z,20.2
2023-02-11T21:07:00.127Z,20.2
2023-02-11T21:08:43.822Z,20.2
2023-02-11T21:10:27.504Z,20.2
2023-02-11T21:12:11.255Z,20.2
2023-02-11T21:13:54.909Z,20.2
2023-02-11T21:15:38.631Z,20.2
2023-02-11T21:17:22.326Z,20.2
2023-02-11T21:19:06.027Z,20.2
2023-02-11T21:20:49.733Z,20.2
2023-02-11T21:22:33.456Z,20.2
2023-02-11T21:24:17.234Z,20.2
2023-02-11T21:26:00.841Z,20.2
2023-02-11T21:27:44.521Z,20.1
2023-02-11T21:29:28.283Z,20.1
2023-02-11T21:31:11.924Z,20.1
2023-02-11T21:32:55.657Z,20.1
2023-02-11T21:34:39.382Z,20.1
2023-02-11T21:36:23.045Z,20.1
2023-02-11T21:38:06.723Z,20.1
2023-02-11T21:39:50.444Z,20.1
2023-02-11T21:41:34.214Z,20.1
2023-02-11T21:43:17.859Z,20.1
2023-02-11T21:45:01.530Z,20.1
2023-02-11T21:46:45.269Z,20.1
2023-02-11T21:48:28.960Z,20.1
2023-02-11T21:50:12.667Z,20.1
2023-02-11T21:51:56.421Z,20.1
2023-02-11T21:53:40.087Z,20.1
2023-02-11T21:55:23.767Z,20.1
2023-02-11T21:57:07.455Z,20
2023-02-11T21:58:51.180Z,20
2023-02-11T22:00:34.876Z,20
2023-02-11T22:02:18.569Z,20
2023-02-11T22:04:02.269Z,20
2023-02-11T22:05:45.965Z,20
2023-02-11T22:07:29.663Z,20
2023-02-11T22:09:13.372Z,20
2023-02-11T22:10:57.072Z,20
2023-02-11T22:12:40.773Z,20
2023-02-11T22:14:24.469Z,20
2023-02-11T22:16:08.184Z,20
2023-02-11T22:17:52.076Z,20
2023-02-11T22:19:35.624Z,20
2023-02-11T22:21:19.281Z,20
2023-02-11T22:23:02.985Z,19.9
2023-02-11T22:24:46.695Z,19.9
2023-02-11T22:26:30.424Z,19.9
2023-02-11T22:28:14.095Z,19.9
2023-02-11T22:29:57.829Z,19.9
2023-02-11T22:31:41.498Z,19.9
2023-02-11T22:33:25.210Z,19.9
2023-02-11T22:35:08.904Z,19.9
2023-02-11T22:36:52.615Z,19.9
2023-02-11T22:38:36.292Z,19.9
2023-02-11T22:40:19.990Z,19.9
2023-02-11T22:42:03.684Z,19.9
2023-02-11T22:43:47.452Z,19.8
2023-02-11T22:45:31.091Z,19.8
2023-02-11T22:47:14.810Z,19.8
2023-02-11T22:48:58.527Z,19.8
2023-02-11T22:50:42.211Z,19.8
2023-02-11T22:52:25.918Z,19.8
2023-02-11T22:54:09.612Z,19.8
2023-02-11T22:55:53.315Z,19.8
2023-02-11T22:57:37.057Z,19.8
2023-02-11T22:59:20.699Z,19.8
2023-02-11T23:01:04.418Z,19.8
2023-02-11T23:02:48.120Z,19.8
2023-02-11T23:04:31.823Z,19.8
2023-02-11T23:06:15.534Z,19.8
2023-02-11T23:07:59.235Z,19.8
2023-02-11T23:09:42.926Z,19.8
2023-02-11T23:11:26.634Z,19.8
2023-02-11T23:13:10.313Z,19.7
2023-02-11T23:14:54.037Z,19.7
2023-02-11T23:16:37.729Z,19.7
2023-02-11T23:18:21.461Z,19.7